The Cure — ZJL8658 — position and weather

sailwx.info

Track history (hours):
 
Tides and Currents Weather Stations Pressure Air Temp Water Temp Dewpoint Dewpoint Depression Visibility Wind Speed Wind Dir Waves Ship Positions

The Cure

Last reported at 2018-Feb-20 19:23 UTC. Time now 2018-Feb-23 00:57 UTC.
Position N 26°07' W 080°07'.

Length 19 m.

MMSI: 378111927.

Date/timePositionNaut miles runAvg speedWind from/ knotsBaromVisibWave heightAir tempDewpointWater temp
2018-Feb-20 19:23N 26°07' W 080°07'0 0.0
2018-Feb-20 18:59N 26°07' W 080°07'1 1.0
2018-Feb-20 18:28N 26°08' W 080°07'2 3.3
2018-Feb-20 17:55N 26°06' W 080°07'2 3.4
2018-Feb-20 17:29N 26°06' W 080°05'5 9.9
2018-Feb-20 17:00N 26°01' W 080°05'5 9.7
2018-Feb-20 16:30N 25°56' W 080°05'5 9.6
2018-Feb-20 15:59N 25°51' W 080°05'5 9.5
2018-Feb-20 15:30N 25°46' W 080°05'4 8.6
2018-Feb-20 15:00N 25°42' W 080°06'4 8.1
2018-Feb-20 14:30N 25°39' W 080°08'3 6.6
2018-Feb-20 14:00N 25°40' W 080°11'4 8.2
2018-Feb-20 13:30N 25°44' W 080°11'  
2018-Feb-16 22:00N 25°44' W 080°11'0 0.0
2018-Feb-16 21:30N 25°44' W 080°11'0 0.0
2018-Feb-16 21:00N 25°44' W 080°11'0 0.0
2018-Feb-16 20:30N 25°44' W 080°11'  
2018-Feb-11 16:57N 25°44' W 080°11'0 0.0
2018-Feb-11 00:02N 25°44' W 080°11'0 0.0
2018-Feb-10 23:59N 25°44' W 080°11'0 0.0
2018-Feb-10 23:29N 25°44' W 080°11'0 0.0
2018-Feb-10 22:59N 25°44' W 080°11'0 0.0
2018-Feb-10 22:29N 25°44' W 080°11'0 0.0
2018-Feb-10 21:59N 25°44' W 080°11'0 0.0
2018-Feb-10 21:29N 25°44' W 080°11'3 7.1
2018-Feb-10 21:00N 25°41' W 080°11'4 7.3
2018-Feb-10 20:30N 25°39' W 080°08'4 7.5
2018-Feb-10 20:00N 25°43' W 080°08'3 6.9
2018-Feb-10 19:30N 25°46' W 080°08'  
Track history (hours):
 
Tides and Currents Weather Stations Pressure Air Temp Water Temp Dewpoint Dewpoint Depression Visibility Wind Speed Wind Dir Waves Ship Positions

The Cure

Last reported at 2018-Feb-20 19:23 UTC. Time now 2018-Feb-23 00:57 UTC.
Position N 26°07' W 080°07'.

Length 19 m.

MMSI: 378111927.

Date/timePositionNaut miles runAvg speedWind from/ knotsBaromVisibWave heightAir tempDewpointWater temp
2018-Feb-20 19:23N 26°07' W 080°07'0 0.0
2018-Feb-20 18:59N 26°07' W 080°07'1 1.0
2018-Feb-20 18:28N 26°08' W 080°07'2 3.3
2018-Feb-20 17:55N 26°06' W 080°07'2 3.4
2018-Feb-20 17:29N 26°06' W 080°05'5 9.9
2018-Feb-20 17:00N 26°01' W 080°05'5 9.7
2018-Feb-20 16:30N 25°56' W 080°05'5 9.6
2018-Feb-20 15:59N 25°51' W 080°05'5 9.5
2018-Feb-20 15:30N 25°46' W 080°05'4 8.6
2018-Feb-20 15:00N 25°42' W 080°06'4 8.1
2018-Feb-20 14:30N 25°39' W 080°08'3 6.6
2018-Feb-20 14:00N 25°40' W 080°11'4 8.2
2018-Feb-20 13:30N 25°44' W 080°11'  
2018-Feb-16 22:00N 25°44' W 080°11'0 0.0
2018-Feb-16 21:30N 25°44' W 080°11'0 0.0
2018-Feb-16 21:00N 25°44' W 080°11'0 0.0
2018-Feb-16 20:30N 25°44' W 080°11'  
2018-Feb-11 16:57N 25°44' W 080°11'0 0.0
2018-Feb-11 00:02N 25°44' W 080°11'0 0.0
2018-Feb-10 23:59N 25°44' W 080°11'0 0.0
2018-Feb-10 23:29N 25°44' W 080°11'0 0.0
2018-Feb-10 22:59N 25°44' W 080°11'0 0.0
2018-Feb-10 22:29N 25°44' W 080°11'0 0.0
2018-Feb-10 21:59N 25°44' W 080°11'0 0.0
2018-Feb-10 21:29N 25°44' W 080°11'3 7.1
2018-Feb-10 21:00N 25°41' W 080°11'4 7.3
2018-Feb-10 20:30N 25°39' W 080°08'4 7.5
2018-Feb-10 20:00N 25°43' W 080°08'3 6.9
2018-Feb-10 19:30N 25°46' W 080°08'  

Dump ship's entire track history